sensor_id;sensor_type;location;lat;lon;timestamp;pressure;altitude;pressure_sealevel;temperature;humidity
14343;BME280;7255;53.596;9.960;2022-09-01T00:01:46;102260.00;;;12.89;100.00
14343;BME280;7255;53.596;9.960;2022-09-01T00:04:15;102255.03;;;12.93;100.00
14343;BME280;7255;53.596;9.960;2022-09-01T00:06:42;102257.13;;;12.97;100.00
14343;BME280;7255;53.596;9.960;2022-09-01T00:09:11;102250.87;;;12.97;100.00
14343;BME280;7255;53.596;9.960;2022-09-01T00:11:41;102251.31;;;12.94;100.00
14343;BME280;7255;53.596;9.960;2022-09-01T00:14:09;102253.78;;;12.88;100.00
14343;BME280;7255;53.596;9.960;2022-09-01T00:16:37;102251.69;;;12.90;100.00
14343;BME280;7255;53.596;9.960;2022-09-01T00:19:04;102252.09;;;12.87;100.00
14343;BME280;7255;53.596;9.960;2022-09-01T00:21:34;102256.66;;;12.87;100.00
14343;BME280;7255;53.596;9.960;2022-09-01T00:24:01;102252.09;;;12.87;100.00
14343;BME280;7255;53.596;9.960;2022-09-01T00:26:27;102253.78;;;12.88;100.00
14343;BME280;7255;53.596;9.960;2022-09-01T00:28:55;102250.84;;;12.83;100.00
14343;BME280;7255;53.596;9.960;2022-09-01T00:31:22;102247.09;;;12.78;100.00
14343;BME280;7255;53.596;9.960;2022-09-01T00:33:49;102247.91;;;12.71;100.00
14343;BME280;7255;53.596;9.960;2022-09-01T00:36:16;102247.06;;;12.71;100.00
14343;BME280;7255;53.596;9.960;2022-09-01T00:38:43;102247.06;;;12.71;100.00
14343;BME280;7255;53.596;9.960;2022-09-01T00:41:10;102241.66;;;12.64;100.00
14343;BME280;7255;53.596;9.960;2022-09-01T00:43:40;102243.34;;;12.72;100.00
14343;BME280;7255;53.596;9.960;2022-09-01T00:46:12;102247.50;;;12.68;100.00
14343;BME280;7255;53.596;9.960;2022-09-01T00:48:38;102239.16;;;12.63;100.00
14343;BME280;7255;53.596;9.960;2022-09-01T00:51:06;102245.81;;;12.60;100.00
14343;BME280;7255;53.596;9.960;2022-09-01T00:53:35;102245.81;;;12.60;100.00
14343;BME280;7255;53.596;9.960;2022-09-01T00:56:04;102238.34;;;12.62;100.00
14343;BME280;7255;53.596;9.960;2022-09-01T00:58:33;102239.94;;;12.50;100.00
14343;BME280;7255;53.596;9.960;2022-09-01T01:01:01;102244.91;;;12.46;100.00
14343;BME280;7255;53.596;9.960;2022-09-01T01:03:29;102244.06;;;12.46;100.00
14343;BME280;7255;53.596;9.960;2022-09-01T01:05:57;102237.44;;;12.48;100.00
14343;BME280;7255;53.596;9.960;2022-09-01T01:08:27;102232.88;;;12.49;100.00
14343;BME280;7255;53.596;9.960;2022-09-01T01:10:58;102235.81;;;12.54;100.00
14343;BME280;7255;53.596;9.960;2022-09-01T01:13:25;102236.19;;;12.44;100.00
14343;BME280;7255;53.596;9.960;2022-09-01T01:15:53;102232.38;;;12.32;100.00
14343;BME280;7255;53.596;9.960;2022-09-01T01:18:19;102224.50;;;12.30;100.00
14343;BME280;7255;53.596;9.960;2022-09-01T01:20:47;102227.38;;;12.29;100.00
14343;BME280;7255;53.596;9.960;2022-09-01T01:23:38;102221.16;;;12.28;100.00
14343;BME280;7255;53.596;9.960;2022-09-01T01:26:09;102233.53;;;12.16;100.00
14343;BME280;7255;53.596;9.960;2022-09-01T01:28:37;102226.94;;;12.19;100.00
14343;BME280;7255;53.596;9.960;2022-09-01T01:31:05;102224.06;;;12.27;100.00
14343;BME280;7255;53.596;9.960;2022-09-01T01:33:39;102229.06;;;12.30;100.00
14343;BME280;7255;53.596;9.960;2022-09-01T01:36:11;102230.31;;;12.27;100.00
14343;BME280;7255;53.596;9.960;2022-09-01T01:38:38;102221.97;;;12.22;100.00
14343;BME280;7255;53.596;9.960;2022-09-01T01:41:08;102234.03;;;12.26;100.00
14343;BME280;7255;53.596;9.960;2022-09-01T01:43:36;102234.44;;;12.30;100.00
14343;BME280;7255;53.596;9.960;2022-09-01T01:46:05;102243.69;;;12.14;100.00
14343;BME280;7255;53.596;9.960;2022-09-01T01:48:33;102239.34;;;12.13;100.00
14343;BME280;7255;53.596;9.960;2022-09-01T01:51:02;102246.81;;;12.18;100.00
14343;BME280;7255;53.596;9.960;2022-09-01T01:53:29;102245.59;;;12.20;100.00
14343;BME280;7255;53.596;9.960;2022-09-01T01:55:56;102226.50;;;12.15;100.00
14343;BME280;7255;53.596;9.960;2022-09-01T01:58:26;102233.47;;;12.03;100.00
14343;BME280;7255;53.596;9.960;2022-09-01T02:00:55;102236.75;;;11.98;100.00
14343;BME280;7255;53.596;9.960;2022-09-01T02:03:24;102236.34;;;12.01;100.00
14343;BME280;7255;53.596;9.960;2022-09-01T02:05:54;102237.97;;;11.96;100.00
14343;BME280;7255;53.596;9.960;2022-09-01T02:08:22;102230.84;;;11.88;100.00
14343;BME280;7255;53.596;9.960;2022-09-01T02:10:53;102242.00;;;11.85;100.00
14343;BME280;7255;53.596;9.960;2022-09-01T02:13:24;102238.25;;;11.79;100.00
14343;BME280;7255;53.596;9.960;2022-09-01T02:15:56;102246.56;;;11.84;100.00
14343;BME280;7255;53.596;9.960;2022-09-01T02:18:24;102240.81;;;11.87;100.00
14343;BME280;7255;53.596;9.960;2022-09-01T02:20:52;102237.06;;;11.88;100.00
14343;BME280;7255;53.596;9.960;2022-09-01T02:23:21;102231.22;;;11.78;100.00
14343;BME280;7255;53.596;9.960;2022-09-01T02:25:50;102239.03;;;11.73;100.00
14343;BME280;7255;53.596;9.960;2022-09-01T02:28:18;102232.75;;;11.66;100.00
14343;BME280;7255;53.596;9.960;2022-09-01T02:30:48;102237.31;;;11.65;100.00
14343;BME280;7255;53.596;9.960;2022-09-01T02:33:17;102238.94;;;11.60;100.00
14343;BME280;7255;53.596;9.960;2022-09-01T02:35:44;102237.25;;;11.59;100.00
14343;BME280;7255;53.596;9.960;2022-09-01T02:38:11;102229.81;;;11.61;100.00
14343;BME280;7255;53.596;9.960;2022-09-01T02:40:39;102223.59;;;11.60;100.00
14343;BME280;7255;53.596;9.960;2022-09-01T02:43:07;102220.22;;;11.51;100.00
14343;BME280;7255;53.596;9.960;2022-09-01T02:45:36;102232.59;;;11.46;100.00
14343;BME280;7255;53.596;9.960;2022-09-01T02:48:04;102226.37;;;11.45;100.00
14343;BME280;7255;53.596;9.960;2022-09-01T02:50:35;102217.69;;;11.43;100.00
14343;BME280;7255;53.596;9.960;2022-09-01T02:53:02;102234.59;;;11.37;100.00
14343;BME280;7255;53.596;9.960;2022-09-01T02:55:34;102224.22;;;11.34;100.00
14343;BME280;7255;53.596;9.960;2022-09-01T02:58:00;102226.66;;;11.29;100.00
14343;BME280;7255;53.596;9.960;2022-09-01T03:00:26;102227.41;;;11.23;100.00
14343;BME280;7255;53.596;9.960;2022-09-01T03:02:59;102225.38;;;11.25;100.00
14343;BME280;7255;53.596;9.960;2022-09-01T03:05:29;102222.09;;;11.29;100.00
14343;BME280;7255;53.596;9.960;2022-09-01T03:07:58;102228.72;;;11.27;100.00
14343;BME280;7255;53.596;9.960;2022-09-01T03:10:28;102222.47;;;11.26;100.00
14343;BME280;7255;53.596;9.960;2022-09-01T03:12:58;102226.66;;;11.29;100.00
14343;BME280;7255;53.596;9.960;2022-09-01T03:15:26;102232.34;;;11.19;100.00
14343;BME280;7255;53.596;9.960;2022-09-01T03:17:52;102231.91;;;11.15;100.00
14343;BME280;7255;53.596;9.960;2022-09-01T03:20:18;102225.63;;;11.08;100.00
14343;BME280;7255;53.596;9.960;2022-09-01T03:22:47;102226.00;;;11.05;100.00
14343;BME280;7255;53.596;9.960;2022-09-01T03:25:14;102223.06;;;11.00;100.00
14343;BME280;7255;53.596;9.960;2022-09-01T03:27:41;102228.81;;;10.97;100.00
14343;BME280;7255;53.596;9.960;2022-09-01T03:30:08;102231.00;;;11.08;100.00
14343;BME280;7255;53.596;9.960;2022-09-01T03:32:35;102230.56;;;11.05;100.00
14343;BME280;7255;53.596;9.960;2022-09-01T03:35:02;102228.88;;;11.04;100.00
14343;BME280;7255;53.596;9.960;2022-09-01T03:37:29;102222.72;;;11.10;100.00
14343;BME280;7255;53.596;9.960;2022-09-01T03:39:56;102225.63;;;11.08;100.00
14343;BME280;7255;53.596;9.960;2022-09-01T03:42:24;102229.34;;;11.07;100.00
14343;BME280;7255;53.596;9.960;2022-09-01T03:44:53;102220.19;;;11.02;100.00
14343;BME280;7255;53.596;9.960;2022-09-01T03:47:20;102213.97;;;11.01;100.00
14343;BME280;7255;53.596;9.960;2022-09-01T03:49:48;102218.12;;;11.04;100.00
14343;BME280;7255;53.596;9.960;2022-09-01T03:52:15;102227.25;;;11.03;100.00
14343;BME280;7255;53.596;9.960;2022-09-01T03:54:41;102206.41;;;10.90;100.00
14343;BME280;7255;53.596;9.960;2022-09-01T03:57:09;102223.66;;;10.81;100.00
14343;BME280;7255;53.596;9.960;2022-09-01T03:59:36;102208.75;;;10.78;100.00
14343;BME280;7255;53.596;9.960;2022-09-01T04:02:04;102217.00;;;10.76;100.00
14343;BME280;7255;53.596;9.960;2022-09-01T04:04:31;102212.91;;;10.81;100.00
14343;BME280;7255;53.596;9.960;2022-09-01T04:06:58;102209.53;;;10.72;100.00
14343;BME280;7255;53.596;9.960;2022-09-01T04:09:25;102217.78;;;10.70;100.00
14343;BME280;7255;53.596;9.960;2022-09-01T04:11:51;102203.69;;;10.68;100.00
14343;BME280;7255;53.596;9.960;2022-09-01T04:14:19;102220.56;;;10.62;100.00
14343;BME280;7255;53.596;9.960;2022-09-01T04:16:45;102213.91;;;10.58;100.00
14343;BME280;7255;53.596;9.960;2022-09-01T04:19:33;102213.53;;;10.61;100.00
14343;BME280;7255;53.596;9.960;2022-09-01T04:22:01;102213.06;;;10.57;100.00
14343;BME280;7255;53.596;9.960;2022-09-01T04:24:30;102210.66;;;10.63;100.00
14343;BME280;7255;53.596;9.960;2022-09-01T04:26:59;102212.41;;;10.70;100.00
14343;BME280;7255;53.596;9.960;2022-09-01T04:29:29;102212.41;;;10.70;100.00
14343;BME280;7255;53.596;9.960;2022-09-01T04:31:59;102214.50;;;10.75;100.00
14343;BME280;7255;53.596;9.960;2022-09-01T04:34:28;102215.41;;;10.82;100.00
14343;BME280;7255;53.596;9.960;2022-09-01T04:37:01;102216.25;;;10.83;100.00
14343;BME280;7255;53.596;9.960;2022-09-01T04:39:29;102212.09;;;10.80;100.00
14343;BME280;7255;53.596;9.960;2022-09-01T04:41:56;102215.81;;;10.79;100.00
14343;BME280;7255;53.596;9.960;2022-09-01T04:44:22;102210.03;;;10.82;100.00
14343;BME280;7255;53.596;9.960;2022-09-01T04:46:51;102212.91;;;10.81;100.00
14343;BME280;7255;53.596;9.960;2022-09-01T04:49:19;102209.97;;;10.75;100.00
14343;BME280;7255;53.596;9.960;2022-09-01T04:51:48;102219.06;;;10.74;100.00
14343;BME280;7255;53.596;9.960;2022-09-01T04:54:15;102218.22;;;10.74;100.00
14343;BME280;7255;53.596;9.960;2022-09-01T04:56:44;102215.72;;;10.72;100.00
14343;BME280;7255;53.596;9.960;2022-09-01T04:59:12;102226.56;;;10.79;100.00
14343;BME280;7255;53.596;9.960;2022-09-01T05:01:40;102225.78;;;10.85;100.00
14343;BME280;7255;53.596;9.960;2022-09-01T05:04:14;102225.78;;;10.85;100.00
14343;BME280;7255;53.596;9.960;2022-09-01T05:06:43;102222.09;;;10.86;100.00
14343;BME280;7255;53.596;9.960;2022-09-01T05:09:10;102224.19;;;10.91;100.00
14343;BME280;7255;53.596;9.960;2022-09-01T05:11:38;102227.06;;;10.89;100.00
14343;BME280;7255;53.596;9.960;2022-09-01T05:14:09;102225.88;;;10.92;100.00
14343;BME280;7255;53.596;9.960;2022-09-01T05:16:36;102224.97;;;10.85;100.00
14343;BME280;7255;53.596;9.960;2022-09-01T05:19:05;102219.59;;;10.85;100.00
14343;BME280;7255;53.596;9.960;2022-09-01T05:21:40;102234.63;;;11.01;100.00
14343;BME280;7255;53.596;9.960;2022-09-01T05:24:11;102236.41;;;11.08;100.00
14343;BME280;7255;53.596;9.960;2022-09-01T05:26:39;102239.72;;;11.10;100.00
14343;BME280;7255;53.596;9.960;2022-09-01T05:29:08;102236.91;;;11.18;100.00
14343;BME280;7255;53.596;9.960;2022-09-01T05:31:38;102228.62;;;11.20;100.00
14343;BME280;7255;53.596;9.960;2022-09-01T05:34:05;102240.28;;;11.27;100.00
14343;BME280;7255;53.596;9.960;2022-09-01T05:36:34;102237.47;;;11.35;100.00
14343;BME280;7255;53.596;9.960;2022-09-01T05:39:04;102238.31;;;11.36;100.00
14343;BME280;7255;53.596;9.960;2022-09-01T05:41:32;102238.81;;;11.46;100.00
14343;BME280;7255;53.596;9.960;2022-09-01T05:44:01;102250.09;;;11.56;100.00
14343;BME280;7255;53.596;9.960;2022-09-01T05:46:28;102241.00;;;11.58;100.00
14343;BME280;7255;53.596;9.960;2022-09-01T05:48:56;102237.31;;;11.65;100.00
14343;BME280;7255;53.596;9.960;2022-09-01T05:51:24;102238.59;;;11.69;100.00
14343;BME280;7255;53.596;9.960;2022-09-01T05:53:52;102240.31;;;11.77;100.00
14343;BME280;7255;53.596;9.960;2022-09-01T05:56:25;102245.31;;;11.80;100.00
14343;BME280;7255;53.596;9.960;2022-09-01T05:58:51;102252.22;;;11.89;100.00
14343;BME280;7255;53.596;9.960;2022-09-01T06:01:21;102251.63;;;11.94;100.00
14343;BME280;7255;53.596;9.960;2022-09-01T06:03:49;102256.28;;;12.07;100.00
14343;BME280;7255;53.596;9.960;2022-09-01T06:06:19;102259.22;;;12.12;100.00
14343;BME280;7255;53.596;9.960;2022-09-01T06:08:47;102266.31;;;12.20;100.00
14343;BME280;7255;53.596;9.960;2022-09-01T06:11:14;102256.84;;;12.30;100.00
14343;BME280;7255;53.596;9.960;2022-09-01T06:13:43;102252.34;;;12.44;100.00
14343;BME280;7255;53.596;9.960;2022-09-01T06:16:12;102250.34;;;12.60;100.00
14343;BME280;7255;53.596;9.960;2022-09-01T06:18:40;102257.41;;;12.67;100.00
14343;BME280;7255;53.596;9.960;2022-09-01T06:21:08;102257.88;;;12.78;100.00
14343;BME280;7255;53.596;9.960;2022-09-01T06:23:36;102254.59;;;12.89;100.00
14343;BME280;7255;53.596;9.960;2022-09-01T06:26:02;102259.00;;;13.03;100.00
14343;BME280;7255;53.596;9.960;2022-09-01T06:28:29;102260.06;;;13.16;100.00
14343;BME280;7255;53.596;9.960;2022-09-01T06:30:57;102263.84;;;13.28;100.00
14343;BME280;7255;53.596;9.960;2022-09-01T06:33:24;102261.78;;;13.37;100.00
14343;BME280;7255;53.596;9.960;2022-09-01T06:35:51;102268.47;;;13.54;100.00
14343;BME280;7255;53.596;9.960;2022-09-01T06:38:20;102263.87;;;13.68;100.00
14343;BME280;7255;53.596;9.960;2022-09-01T06:40:46;102275.53;;;13.82;100.00
14343;BME280;7255;53.596;9.960;2022-09-01T06:43:13;102267.59;;;13.94;100.00
14343;BME280;7255;53.596;9.960;2022-09-01T06:45:43;102267.16;;;14.10;100.00
14343;BME280;7255;53.596;9.960;2022-09-01T06:48:15;102270.87;;;14.22;100.00
14343;BME280;7255;53.596;9.960;2022-09-01T06:50:42;102285.84;;;14.32;100.00
14343;BME280;7255;53.596;9.960;2022-09-01T06:53:10;102275.41;;;14.42;100.00
14343;BME280;7255;53.596;9.960;2022-09-01T06:55:40;102269.12;;;14.55;100.00
14343;BME280;7255;53.596;9.960;2022-09-01T06:58:09;102279.50;;;14.71;100.00
14343;BME280;7255;53.596;9.960;2022-09-01T07:00:40;102277.78;;;14.83;100.00
14343;BME280;7255;53.596;9.960;2022-09-01T07:03:07;102280.66;;;14.89;100.00
14343;BME280;7255;53.596;9.960;2022-09-01T07:05:37;102278.91;;;15.08;100.00
14343;BME280;7255;53.596;9.960;2022-09-01T07:08:05;102276.72;;;15.23;100.00
14343;BME280;7255;53.596;9.960;2022-09-01T07:10:39;102277.69;;;15.35;100.00
14343;BME280;7255;53.596;9.960;2022-09-01T07:13:10;102283.22;;;15.47;100.00
14343;BME280;7255;53.596;9.960;2022-09-01T07:15:46;102278.16;;;15.57;100.00
14343;BME280;7255;53.596;9.960;2022-09-01T07:18:14;102284.34;;;15.65;100.00
14343;BME280;7255;53.596;9.960;2022-09-01T07:20:43;102280.53;;;15.72;100.00
14343;BME280;7255;53.596;9.960;2022-09-01T07:23:13;102290.41;;;15.92;100.00
14343;BME280;7255;53.596;9.960;2022-09-01T07:25:42;102289.84;;;16.08;100.00
14343;BME280;7255;53.596;9.960;2022-09-01T07:28:09;102296.47;;;16.12;100.00
14343;BME280;7255;53.596;9.960;2022-09-01T07:30:40;102293.00;;;16.24;100.00
14343;BME280;7255;53.596;9.960;2022-09-01T07:33:07;102297.84;;;16.40;100.00
14343;BME280;7255;53.596;9.960;2022-09-01T07:35:36;102304.41;;;16.51;100.00
14343;BME280;7255;53.596;9.960;2022-09-01T07:38:04;102307.87;;;16.58;100.00
14343;BME280;7255;53.596;9.960;2022-09-01T07:40:32;102294.22;;;16.65;100.00
14343;BME280;7255;53.596;9.960;2022-09-01T07:43:03;102301.13;;;16.79;100.00
14343;BME280;7255;53.596;9.960;2022-09-01T07:45:33;102296.84;;;16.90;100.00
14343;BME280;7255;53.596;9.960;2022-09-01T07:48:06;102298.91;;;16.95;100.00
14343;BME280;7255;53.596;9.960;2022-09-01T07:50:34;102307.91;;;17.07;100.00
14343;BME280;7255;53.596;9.960;2022-09-01T07:53:01;102302.38;;;17.13;100.00
14343;BME280;7255;53.596;9.960;2022-09-01T07:55:28;102305.63;;;17.22;100.00
14343;BME280;7255;53.596;9.960;2022-09-01T07:57:56;102302.56;;;17.30;100.00
14343;BME280;7255;53.596;9.960;2022-09-01T08:00:23;102304.97;;;17.39;100.00
14343;BME280;7255;53.596;9.960;2022-09-01T08:02:51;102313.62;;;17.47;100.00
14343;BME280;7255;53.596;9.960;2022-09-01T08:05:17;102308.41;;;17.58;100.00
14343;BME280;7255;53.596;9.960;2022-09-01T08:07:47;102312.00;;;17.70;100.00
14343;BME280;7255;53.596;9.960;2022-09-01T08:10:14;102316.12;;;17.73;100.00
14343;BME280;7255;53.596;9.960;2022-09-01T08:12:42;102320.38;;;17.68;98.70
14343;BME280;7255;53.596;9.960;2022-09-01T08:15:09;102313.06;;;17.81;98.78
14343;BME280;7255;53.596;9.960;2022-09-01T08:17:36;102311.34;;;17.86;97.03
14343;BME280;7255;53.596;9.960;2022-09-01T08:20:04;102314.19;;;17.92;96.98
14343;BME280;7255;53.596;9.960;2022-09-01T08:22:33;102319.62;;;17.92;91.82
14343;BME280;7255;53.596;9.960;2022-09-01T08:25:01;102323.75;;;17.94;87.21
14343;BME280;7255;53.596;9.960;2022-09-01T08:27:28;102313.59;;;18.01;88.61
14343;BME280;7255;53.596;9.960;2022-09-01T08:29:55;102311.00;;;18.06;83.64
14343;BME280;7255;53.596;9.960;2022-09-01T08:32:22;102320.91;;;18.13;84.49
14343;BME280;7255;53.596;9.960;2022-09-01T08:34:48;102327.78;;;18.27;85.24
14343;BME280;7255;53.596;9.960;2022-09-01T08:37:14;102319.22;;;18.35;81.24
14343;BME280;7255;53.596;9.960;2022-09-01T08:39:41;102317.59;;;18.34;78.52
14343;BME280;7255;53.596;9.960;2022-09-01T08:42:14;102319.34;;;18.40;75.60
14343;BME280;7255;53.596;9.960;2022-09-01T08:44:49;102319.81;;;18.49;72.40
14343;BME280;7255;53.596;9.960;2022-09-01T08:47:20;102321.34;;;18.57;71.87
14343;BME280;7255;53.596;9.960;2022-09-01T08:49:47;102322.72;;;18.71;73.67
14343;BME280;7255;53.596;9.960;2022-09-01T08:52:20;102322.13;;;18.81;70.84
14343;BME280;7255;53.596;9.960;2022-09-01T08:54:51;102324.25;;;18.79;65.93
14343;BME280;7255;53.596;9.960;2022-09-01T08:57:22;102323.66;;;18.89;66.60
14343;BME280;7255;53.596;9.960;2022-09-01T08:59:49;102317.25;;;18.95;67.06
14343;BME280;7255;53.596;9.960;2022-09-01T09:02:32;102320.06;;;19.00;66.07
14343;BME280;7255;53.596;9.960;2022-09-01T09:05:06;102321.72;;;19.01;60.67
14343;BME280;7255;53.596;9.960;2022-09-01T09:07:44;102317.94;;;19.02;63.99
14343;BME280;7255;53.596;9.960;2022-09-01T09:10:17;102316.00;;;19.14;61.37
14343;BME280;7255;53.596;9.960;2022-09-01T09:12:54;102323.75;;;19.22;59.24
14343;BME280;7255;53.596;9.960;2022-09-01T09:15:31;102323.28;;;19.26;62.00
14343;BME280;7255;53.596;9.960;2022-09-01T09:18:11;102311.56;;;19.25;59.69
14343;BME280;7255;53.596;9.960;2022-09-01T09:20:39;102309.06;;;19.23;57.96
14343;BME280;7255;53.596;9.960;2022-09-01T09:23:14;102310.56;;;19.31;55.32
14343;BME280;7255;53.596;9.960;2022-09-01T09:25:41;102304.56;;;19.46;54.97
14343;BME280;7255;53.596;9.960;2022-09-01T09:28:09;102305.31;;;19.58;54.52
14343;BME280;7255;53.596;9.960;2022-09-01T09:30:35;102307.63;;;19.67;53.45
14343;BME280;7255;53.596;9.960;2022-09-01T09:33:04;102308.78;;;19.71;56.04
14343;BME280;7255;53.596;9.960;2022-09-01T09:35:35;102308.47;;;19.67;58.92
14343;BME280;7255;53.596;9.960;2022-09-01T09:38:16;102305.19;;;19.82;61.50
14343;BME280;7255;53.596;9.960;2022-09-01T09:40:55;102297.22;;;19.97;61.64
14343;BME280;7255;53.596;9.960;2022-09-01T09:43:23;102297.72;;;19.94;63.13
14343;BME280;7255;53.596;9.960;2022-09-01T09:46:22;102299.72;;;19.99;63.71
14343;BME280;7255;53.596;9.960;2022-09-01T09:48:51;102296.94;;;20.16;62.56
14343;BME280;7255;53.596;9.960;2022-09-01T09:51:31;102300.31;;;20.23;63.13
14343;BME280;7255;53.596;9.960;2022-09-01T09:54:10;102289.56;;;20.16;59.02
14343;BME280;7255;53.596;9.960;2022-09-01T09:56:37;102299.50;;;20.23;58.74
14343;BME280;7255;53.596;9.960;2022-09-01T09:59:15;102294.50;;;20.36;57.64
14343;BME280;7255;53.596;9.960;2022-09-01T10:01:44;102291.97;;;20.52;54.36
14343;BME280;7255;53.596;9.960;2022-09-01T10:04:30;102293.28;;;20.66;57.09
14343;BME280;7255;53.596;9.960;2022-09-01T10:06:57;102279.38;;;20.51;54.95
14343;BME280;7255;53.596;9.960;2022-09-01T10:09:33;102275.84;;;20.28;56.79
14343;BME280;7255;53.596;9.960;2022-09-01T10:12:02;102278.00;;;20.26;54.97
14343;BME280;7255;53.596;9.960;2022-09-01T10:14:32;102276.31;;;20.25;55.50
14343;BME280;7255;53.596;9.960;2022-09-01T10:17:02;102272.78;;;20.47;53.02
14343;BME280;7255;53.596;9.960;2022-09-01T10:19:31;102272.56;;;20.70;52.58
14343;BME280;7255;53.596;9.960;2022-09-01T10:21:58;102269.59;;;20.99;53.02
14343;BME280;7255;53.596;9.960;2022-09-01T10:24:28;102271.03;;;21.07;50.57
14343;BME280;7255;53.596;9.960;2022-09-01T10:26:59;102270.31;;;21.17;49.62
14343;BME280;7255;53.596;9.960;2022-09-01T10:29:29;102267.31;;;21.18;49.74
14343;BME280;7255;53.596;9.960;2022-09-01T10:31:58;102262.97;;;21.22;48.80
14343;BME280;7255;53.596;9.960;2022-09-01T10:34:31;102264.31;;;21.47;46.93
14343;BME280;7255;53.596;9.960;2022-09-01T10:36:59;102266.56;;;21.55;47.45
14343;BME280;7255;53.596;9.960;2022-09-01T10:39:25;102256.75;;;21.59;47.66
14343;BME280;7255;53.596;9.960;2022-09-01T10:41:53;102260.34;;;21.65;46.38
14343;BME280;7255;53.596;9.960;2022-09-01T10:44:23;102261.84;;;21.83;45.89
14343;BME280;7255;53.596;9.960;2022-09-01T10:46:51;102264.97;;;22.02;45.51
14343;BME280;7255;53.596;9.960;2022-09-01T10:49:21;102266.97;;;22.17;43.80
14343;BME280;7255;53.596;9.960;2022-09-01T10:52:08;102261.44;;;22.06;44.34
14343;BME280;7255;53.596;9.960;2022-09-01T10:55:02;102254.75;;;22.29;45.83
14343;BME280;7255;53.596;9.960;2022-09-01T10:57:37;102253.66;;;22.36;45.06
14343;BME280;7255;53.596;9.960;2022-09-01T11:00:45;102254.28;;;22.53;45.40
14343;BME280;7255;53.596;9.960;2022-09-01T11:09:31;102251.44;;;23.27;43.37
14343;BME280;7255;53.596;9.960;2022-09-01T11:12:29;102255.72;;;22.81;42.95
14343;BME280;7255;53.596;9.960;2022-09-01T11:15:03;102255.91;;;22.54;43.85
14343;BME280;7255;53.596;9.960;2022-09-01T11:17:33;102254.63;;;22.77;44.51
14343;BME280;7255;53.596;9.960;2022-09-01T11:20:09;102261.16;;;22.61;44.13
14343;BME280;7255;53.596;9.960;2022-09-01T11:22:39;102258.09;;;22.52;45.46
14343;BME280;7255;53.596;9.960;2022-09-01T11:28:37;102254.13;;;22.22;47.33
14343;BME280;7255;53.596;9.960;2022-09-01T11:31:17;102243.16;;;22.17;47.73
14343;BME280;7255;53.596;9.960;2022-09-01T11:33:51;102252.03;;;22.35;47.75
14343;BME280;7255;53.596;9.960;2022-09-01T11:36:25;102244.41;;;22.47;49.24
14343;BME280;7255;53.596;9.960;2022-09-01T11:38:57;102237.91;;;22.74;49.18
14343;BME280;7255;53.596;9.960;2022-09-01T11:41:28;102241.94;;;22.51;46.91
14343;BME280;7255;53.596;9.960;2022-09-01T11:43:59;102236.84;;;22.90;46.30
14343;BME280;7255;53.596;9.960;2022-09-01T11:46:28;102242.38;;;23.11;45.97
14343;BME280;7255;53.596;9.960;2022-09-01T11:48:59;102228.66;;;23.26;44.51
14343;BME280;7255;53.596;9.960;2022-09-01T11:51:26;102234.44;;;23.40;44.29
14343;BME280;7255;53.596;9.960;2022-09-01T11:53:57;102236.87;;;23.62;43.74
14343;BME280;7255;53.596;9.960;2022-09-01T11:56:27;102239.59;;;23.88;42.35
14343;BME280;7255;53.596;9.960;2022-09-01T11:58:54;102229.16;;;23.95;43.59
14343;BME280;7255;53.596;9.960;2022-09-01T12:01:22;102222.78;;;24.15;42.27
14343;BME280;7255;53.596;9.960;2022-09-01T12:03:56;102222.84;;;23.74;42.36
14343;BME280;7255;53.596;9.960;2022-09-01T12:06:25;102230.31;;;23.17;43.18
14343;BME280;7255;53.596;9.960;2022-09-01T12:08:54;102223.16;;;22.95;44.71
14343;BME280;7255;53.596;9.960;2022-09-01T12:11:23;102212.66;;;22.61;44.83
14343;BME280;7255;53.596;9.960;2022-09-01T12:13:58;102224.81;;;22.18;45.00
14343;BME280;7255;53.596;9.960;2022-09-01T12:16:26;102220.59;;;21.95;47.44
14343;BME280;7255;53.596;9.960;2022-09-01T12:18:55;102219.66;;;21.73;47.06
14343;BME280;7255;53.596;9.960;2022-09-01T12:21:25;102224.91;;;21.80;47.75
14343;BME280;7255;53.596;9.960;2022-09-01T12:23:53;102226.09;;;22.00;48.66
14343;BME280;7255;53.596;9.960;2022-09-01T12:26:24;102213.41;;;22.31;46.95
14343;BME280;7255;53.596;9.960;2022-09-01T12:28:51;102208.28;;;22.65;45.22
14343;BME280;7255;53.596;9.960;2022-09-01T12:31:22;102203.41;;;22.83;45.24
14343;BME280;7255;53.596;9.960;2022-09-01T12:33:49;102204.50;;;22.87;46.11
14343;BME280;7255;53.596;9.960;2022-09-01T12:36:22;102197.94;;;23.03;45.82
14343;BME280;7255;53.596;9.960;2022-09-01T12:38:51;102202.53;;;22.62;46.45
14343;BME280;7255;53.596;9.960;2022-09-01T12:41:27;102206.56;;;22.34;47.32
14343;BME280;7255;53.596;9.960;2022-09-01T12:43:56;102192.97;;;22.70;48.41
14343;BME280;7255;53.596;9.960;2022-09-01T12:46:44;102198.47;;;22.90;47.68
14343;BME280;7255;53.596;9.960;2022-09-01T12:49:17;102198.25;;;23.07;47.54
14343;BME280;7255;53.596;9.960;2022-09-01T12:51:44;102200.41;;;22.84;47.68
14343;BME280;7255;53.596;9.960;2022-09-01T12:54:11;102195.69;;;22.64;46.76
14343;BME280;7255;53.596;9.960;2022-09-01T12:56:38;102195.13;;;22.57;47.96
14343;BME280;7255;53.596;9.960;2022-09-01T12:59:07;102185.63;;;22.07;46.73
14343;BME280;7255;53.596;9.960;2022-09-01T13:01:37;102194.94;;;22.06;48.08
14343;BME280;7255;53.596;9.960;2022-09-01T13:04:24;102197.56;;;21.90;47.33
14343;BME280;7255;53.596;9.960;2022-09-01T13:06:52;102185.63;;;22.07;48.27
14343;BME280;7255;53.596;9.960;2022-09-01T13:09:19;102188.88;;;21.99;46.60
14343;BME280;7255;53.596;9.960;2022-09-01T13:11:46;102188.75;;;22.26;46.32
14343;BME280;7255;53.596;9.960;2022-09-01T13:14:14;102178.66;;;22.47;46.08
14343;BME280;7255;53.596;9.960;2022-09-01T13:16:40;102180.84;;;22.45;45.04